createdAt,value
2024-04-05T00:00:24.450Z,242.88
2024-04-05T00:01:24.490Z,244.62
2024-04-05T00:02:24.475Z,246.26
2024-04-05T00:11:50.991Z,242.62
2024-04-05T00:12:13.879Z,242.98
2024-04-05T00:15:52.624Z,242.62
2024-04-05T00:16:22.672Z,243.20
2024-04-05T00:17:22.596Z,247.15
2024-04-05T00:18:22.594Z,251.82
2024-04-05T00:19:22.597Z,255.61
2024-04-05T00:20:22.586Z,257.35
2024-04-05T00:21:22.616Z,250.82
2024-04-05T00:24:04.042Z,238.95
2024-04-05T00:24:27.034Z,239.04
2024-04-05T00:25:26.988Z,239.83
2024-04-05T00:26:26.940Z,240.07
2024-04-05T00:27:57.061Z,237.89
2024-04-05T00:28:26.923Z,238.98
2024-04-05T00:29:27.051Z,238.34
2024-04-05T00:30:26.971Z,233.66
2024-04-05T00:31:26.984Z,229.36
2024-04-05T00:32:26.971Z,227.25
2024-04-05T00:33:27.002Z,221.42
2024-04-05T00:34:26.950Z,213.62
2024-04-05T00:35:26.954Z,207.20
2024-04-05T00:36:26.959Z,202.27
2024-04-05T00:37:26.965Z,199.20
2024-04-05T00:38:26.970Z,198.56
2024-04-05T00:39:26.944Z,197.81
2024-04-05T00:40:54.580Z,196.55
2024-04-05T00:41:26.952Z,196.60
2024-04-05T00:42:27.051Z,196.87
2024-04-05T00:43:27.056Z,196.90
2024-04-05T00:47:05.649Z,196.55
2024-04-05T00:47:35.679Z,196.77
2024-04-05T00:48:35.673Z,198.33
2024-04-05T00:49:35.694Z,200.18
2024-04-05T00:50:35.662Z,201.82
2024-04-05T00:51:35.658Z,202.94
2024-04-05T00:52:35.714Z,200.00
2024-04-05T00:53:35.708Z,198.61
2024-04-05T00:54:35.700Z,197.78
2024-04-05T00:55:35.701Z,196.86
2024-04-05T00:56:35.680Z,195.96
2024-04-05T00:57:35.693Z,195.35
2024-04-05T01:01:14.473Z,194.35
2024-04-05T01:01:44.424Z,194.58
2024-04-05T01:02:44.384Z,196.20
2024-04-05T01:04:15.946Z,198.12
2024-04-05T01:04:44.389Z,194.52
2024-04-05T01:09:28.733Z,194.35
2024-04-05T01:09:57.530Z,194.76
2024-04-05T01:10:57.463Z,197.77
2024-04-05T01:11:57.771Z,201.92
2024-04-05T01:15:43.175Z,194.35
2024-04-05T01:16:06.180Z,194.59
2024-04-05T01:17:06.165Z,197.43
2024-04-05T01:18:35.767Z,201.51
2024-04-05T01:19:06.464Z,194.71
2024-04-05T01:28:22.913Z,194.35
2024-04-05T01:28:49.942Z,194.93
2024-04-05T01:29:49.927Z,200.24
2024-04-05T01:33:28.959Z,194.35
2024-04-05T01:43:15.582Z,194.35
2024-04-05T01:43:44.055Z,195.36
2024-04-05T01:44:44.041Z,202.92
2024-04-05T01:46:14.135Z,213.59
2024-04-05T01:46:44.083Z,194.98
2024-04-05T01:49:15.630Z,194.35
2024-04-05T01:49:48.388Z,195.07
2024-04-05T01:53:28.610Z,194.35
2024-04-05T01:53:57.091Z,194.98
2024-04-05T01:54:57.178Z,199.78
2024-04-05T01:55:57.078Z,207.03
2024-04-05T01:56:57.162Z,215.82
2024-04-05T01:57:57.102Z,225.07
2024-04-05T01:58:57.096Z,225.71
2024-04-05T01:59:57.098Z,216.55
2024-04-05T02:02:48.171Z,208.37
2024-04-05T02:03:07.775Z,208.43
2024-04-05T02:04:07.681Z,209.09
2024-04-05T02:05:07.707Z,208.94
2024-04-05T02:06:07.750Z,205.32
2024-04-05T02:07:08.162Z,200.46
2024-04-05T02:08:07.781Z,196.24
2024-04-05T02:15:06.738Z,192.95
2024-04-05T02:15:29.411Z,193.17
2024-04-05T02:20:34.318Z,192.95
2024-04-05T02:21:01.536Z,193.31
2024-04-05T02:22:01.542Z,196.33
2024-04-05T02:25:47.242Z,192.95
2024-04-05T02:26:10.245Z,193.18
2024-04-05T02:27:10.235Z,195.63
2024-04-05T02:32:03.891Z,192.95
2024-04-05T02:36:30.312Z,192.95
2024-04-05T02:36:53.235Z,193.29
2024-04-05T02:37:53.193Z,196.91
2024-04-05T02:38:53.295Z,201.77
2024-04-05T02:39:53.191Z,205.71
2024-04-05T02:40:53.194Z,208.41
2024-04-05T02:41:53.270Z,205.09
2024-04-05T02:44:29.523Z,198.36
2024-04-05T02:44:57.562Z,198.48
2024-04-05T02:45:57.558Z,199.12
2024-04-05T02:46:57.616Z,199.24
2024-04-05T02:47:57.690Z,198.14
2024-04-05T02:50:32.994Z,195.52
2024-04-05T02:53:38.100Z,198.36
2024-04-05T02:54:10.621Z,198.68
2024-04-05T02:55:10.594Z,200.27
2024-04-05T02:57:46.095Z,198.36
2024-04-05T02:58:14.930Z,198.56
2024-04-05T02:59:14.957Z,199.80
2024-04-05T03:00:14.972Z,200.78
2024-04-05T03:01:15.008Z,200.62
2024-04-05T03:02:14.970Z,198.94
2024-04-05T03:04:51.895Z,196.41
2024-04-05T03:05:19.510Z,196.55
2024-04-05T03:06:19.697Z,197.36
2024-04-05T03:07:19.644Z,197.85
2024-04-05T03:08:19.667Z,197.50
2024-04-05T03:09:19.734Z,195.94
2024-04-05T03:10:19.758Z,194.01
2024-04-05T03:21:52.231Z,193.24
2024-04-05T03:22:21.058Z,193.86
2024-04-05T03:23:21.119Z,198.04
2024-04-05T03:24:21.112Z,203.18
2024-04-05T03:26:55.467Z,193.24
2024-04-05T03:27:25.458Z,193.57
2024-04-05T03:30:09.918Z,193.24
2024-04-05T03:30:29.858Z,193.39
2024-04-05T03:31:29.799Z,195.55
2024-04-05T03:32:29.813Z,198.50
2024-04-05T03:35:01.181Z,193.24
2024-04-05T03:35:34.143Z,193.55
2024-04-05T03:36:34.115Z,195.32
2024-04-05T03:38:11.448Z,197.16
2024-04-05T03:38:34.126Z,193.34
2024-04-05T03:39:34.155Z,194.38
2024-04-05T03:40:34.150Z,195.42
2024-04-05T03:43:05.887Z,193.24
2024-04-05T03:52:59.012Z,193.24
2024-04-05T03:53:25.818Z,193.79
2024-04-05T03:56:03.226Z,193.24
2024-04-05T03:56:30.151Z,193.71
2024-04-05T04:01:39.153Z,193.24
2024-04-05T04:02:01.684Z,193.63
2024-04-05T04:03:01.583Z,197.92
2024-04-05T04:08:46.167Z,193.24
2024-04-05T04:09:18.961Z,194.04
2024-04-05T04:11:54.368Z,193.24
2024-04-05T04:12:23.293Z,193.80
2024-04-05T04:19:17.778Z,193.24
2024-04-05T04:23:28.968Z,193.24
2024-04-05T04:26:48.859Z,193.24
2024-04-05T04:29:03.405Z,193.24
2024-04-05T04:29:26.245Z,193.75
2024-04-05T04:30:26.160Z,199.37
2024-04-05T04:31:26.213Z,207.89
2024-04-05T04:32:26.426Z,217.12
2024-04-05T04:33:57.750Z,226.59
2024-04-05T04:34:26.163Z,193.62
2024-04-05T04:41:25.010Z,193.24
2024-04-05T04:41:47.933Z,193.66
2024-04-05T04:45:34.017Z,193.24
2024-04-05T04:45:56.726Z,193.66
2024-04-05T04:46:56.620Z,198.16
2024-04-05T04:48:27.045Z,205.03
2024-04-05T04:48:56.618Z,193.68
2024-04-05T04:49:58.165Z,196.87
2024-04-05T04:50:56.633Z,194.43
2024-04-05T04:56:02.096Z,193.24
2024-04-05T04:56:24.818Z,193.56
2024-04-05T04:57:24.803Z,197.12
2024-04-05T04:58:24.777Z,202.29
2024-04-05T04:59:24.925Z,207.92
2024-04-05T05:00:24.893Z,213.97
2024-04-05T05:01:24.927Z,214.34
2024-04-05T05:02:24.788Z,207.59
2024-04-05T05:03:24.811Z,202.71
2024-04-05T05:04:24.882Z,198.73
2024-04-05T05:05:24.932Z,196.90
2024-04-05T05:06:24.792Z,194.75
2024-04-05T05:07:25.107Z,193.88
2024-04-05T05:08:24.806Z,192.54
2024-04-05T05:09:24.802Z,191.85
2024-04-05T05:10:32.244Z,50.00
2024-04-05T05:11:32.246Z,50.00
2024-04-05T05:14:06.438Z,50.00
2024-04-05T05:18:35.959Z,50.00
2024-04-05T05:20:54.076Z,50.00
2024-04-05T05:21:55.350Z,50.00
2024-04-05T05:23:47.026Z,50.00
2024-04-05T05:24:17.440Z,50.00
2024-04-05T05:25:17.398Z,50.00
2024-04-05T05:26:17.405Z,50.00
2024-04-05T05:27:17.584Z,50.00
2024-04-05T05:28:17.412Z,50.00
2024-04-05T05:34:12.082Z,47.98
2024-04-05T05:34:34.798Z,48.95
2024-04-05T05:35:34.786Z,57.95
2024-04-05T05:38:10.598Z,47.98
2024-04-05T05:38:39.118Z,49.10
2024-04-05T05:44:27.679Z,47.98
2024-04-05T05:44:56.574Z,50.00
2024-04-05T05:47:41.172Z,47.98
2024-04-05T05:48:13.803Z,50.14
2024-04-05T05:55:34.798Z,47.98
2024-04-05T05:55:54.579Z,49.18
2024-04-05T05:56:54.602Z,64.97
2024-04-05T06:02:52.356Z,47.98
2024-04-05T06:03:21.208Z,50.45
2024-04-05T06:05:56.947Z,47.98
2024-04-05T06:06:25.455Z,49.98
2024-04-05T06:07:25.419Z,62.65
2024-04-05T06:08:25.427Z,75.14
2024-04-05T06:09:25.453Z,81.32
2024-04-05T06:10:56.480Z,79.78
2024-04-05T06:11:25.531Z,48.47
2024-04-05T06:12:25.905Z,50.50
2024-04-05T06:13:25.404Z,49.63
2024-04-05T06:20:19.956Z,47.98
2024-04-05T06:20:47.177Z,49.44
2024-04-05T06:21:47.166Z,60.36
2024-04-05T06:26:37.528Z,47.98
2024-04-05T06:27:00.246Z,49.10
2024-04-05T06:28:00.496Z,59.93
2024-04-05T06:29:00.198Z,71.08
2024-04-05T06:30:00.276Z,76.72
2024-04-05T06:31:00.218Z,72.16
2024-04-05T06:36:45.589Z,58.42
2024-04-05T06:37:17.588Z,60.36
2024-04-05T06:38:17.595Z,69.01
2024-04-05T06:39:17.607Z,73.47
2024-04-05T06:40:17.667Z,68.87
2024-04-05T06:49:44.189Z,58.42
2024-04-05T06:50:11.473Z,60.07
2024-04-05T06:51:11.384Z,71.74
2024-04-05T06:52:11.365Z,79.82
2024-04-05T06:54:53.194Z,58.42
2024-04-05T06:55:15.720Z,58.92
2024-04-05T06:59:08.749Z,58.42
2024-04-05T07:05:26.228Z,58.42
2024-04-05T07:05:50.481Z,59.90
2024-04-05T07:09:30.358Z,58.42
2024-04-05T07:09:58.987Z,60.49
2024-04-05T07:11:26.856Z,72.07
2024-04-05T07:11:58.945Z,59.88
2024-04-05T07:13:28.886Z,65.73
2024-04-05T07:13:58.990Z,59.10
2024-04-05T07:15:32.316Z,61.53
2024-04-05T07:15:59.039Z,58.75
2024-04-05T07:16:59.059Z,59.83
2024-04-05T07:17:59.055Z,44.18
2024-04-05T07:18:59.036Z,14.32
2024-04-05T07:19:58.986Z,0.00
2024-04-05T07:20:58.955Z,0.00
2024-04-05T07:21:58.992Z,0.00
2024-04-05T07:22:59.061Z,0.00
2024-04-05T07:23:59.014Z,5.64
2024-04-05T07:24:59.090Z,19.94
2024-04-05T07:25:59.009Z,33.55
2024-04-05T07:27:00.039Z,33.52
2024-04-05T07:28:27.939Z,27.70
2024-04-05T07:28:58.948Z,33.82
2024-04-05T07:31:53.216Z,33.55
2024-04-05T07:32:22.259Z,34.39
2024-04-05T07:33:22.203Z,39.62
2024-04-05T07:34:22.207Z,43.93
2024-04-05T07:35:54.330Z,46.36
2024-04-05T07:36:23.859Z,34.00
2024-04-05T07:39:05.063Z,33.55
2024-04-05T07:42:05.384Z,33.55
2024-04-05T07:42:35.327Z,35.33
2024-04-05T07:43:35.364Z,47.10
2024-04-05T07:44:35.332Z,60.73
2024-04-05T07:45:35.409Z,70.54
2024-04-05T07:46:35.353Z,74.15
2024-04-05T07:47:35.489Z,62.75
2024-04-05T07:48:35.343Z,50.00
2024-04-05T07:49:35.376Z,50.00
2024-04-05T07:50:35.408Z,50.64
2024-04-05T07:51:35.327Z,49.45
2024-04-05T07:52:35.567Z,50.00
2024-04-05T07:53:35.421Z,50.71
2024-04-05T07:54:35.423Z,50.58
2024-04-05T07:55:35.470Z,50.54
2024-04-05T07:56:35.467Z,50.80
2024-04-05T07:57:35.582Z,54.10
2024-04-05T07:58:35.419Z,52.20
2024-04-05T07:59:35.467Z,50.27
2024-04-05T08:00:35.485Z,51.52
2024-04-05T08:01:35.534Z,49.86
2024-04-05T08:02:35.382Z,50.94
2024-04-05T08:03:35.397Z,50.28
2024-04-05T08:04:35.401Z,50.00
2024-04-05T08:05:35.403Z,50.00
2024-04-05T08:06:35.418Z,50.00
2024-04-05T08:07:35.692Z,50.78
2024-04-05T08:08:35.426Z,50.53
2024-04-05T08:09:35.379Z,50.00
2024-04-05T08:10:35.420Z,50.83
2024-04-05T08:11:35.406Z,50.37
2024-04-05T08:12:35.399Z,50.14
2024-04-05T08:13:36.083Z,51.57
2024-04-05T08:14:35.418Z,50.85
2024-04-05T08:15:35.423Z,50.00
2024-04-05T08:16:35.418Z,50.00
2024-04-05T08:17:35.721Z,52.00
2024-04-05T08:18:35.507Z,50.88
2024-04-05T08:19:35.409Z,50.11
2024-04-05T08:20:35.430Z,52.73
2024-04-05T08:21:35.421Z,50.04
2024-04-05T08:22:35.712Z,50.31
2024-04-05T08:23:35.424Z,50.00
2024-04-05T08:24:35.414Z,50.72
2024-04-05T08:25:35.434Z,50.29
2024-04-05T08:26:35.428Z,50.07
2024-04-05T08:27:35.590Z,52.54
2024-04-05T08:28:35.405Z,52.89
2024-04-05T08:29:35.447Z,55.48
2024-04-05T08:30:35.445Z,56.72
2024-04-05T08:31:35.474Z,59.35
2024-04-05T08:32:35.626Z,60.94
2024-04-05T08:33:35.433Z,57.94
2024-04-05T08:34:35.421Z,58.38
2024-04-05T08:35:35.424Z,55.61
2024-04-05T08:36:35.416Z,54.54
2024-04-05T08:37:35.466Z,54.28
2024-04-05T08:38:35.437Z,54.00
2024-04-05T08:39:35.484Z,50.87
2024-04-05T08:40:35.502Z,50.00
2024-04-05T08:41:35.547Z,51.47
2024-04-05T08:42:35.695Z,50.00
2024-04-05T08:43:35.586Z,50.00
2024-04-05T08:44:35.638Z,50.51
2024-04-05T08:45:35.628Z,51.81
2024-04-05T08:46:35.596Z,51.73
2024-04-05T08:47:36.113Z,50.00
2024-04-05T08:48:35.721Z,50.00
2024-04-05T08:49:35.685Z,50.42
2024-04-05T08:50:35.686Z,50.67
2024-04-05T08:51:35.757Z,50.00
2024-04-05T08:52:35.785Z,50.90
2024-04-05T08:53:36.575Z,52.13
2024-04-05T08:54:35.796Z,53.32
2024-04-05T08:55:35.855Z,50.79
2024-04-05T08:56:35.918Z,50.00
2024-04-05T08:57:36.111Z,51.55
2024-04-05T08:58:36.035Z,50.00
2024-04-05T08:59:36.171Z,50.00
2024-04-05T09:00:36.221Z,50.10
2024-04-05T09:01:36.290Z,50.77
2024-04-05T09:02:36.605Z,50.18
2024-04-05T09:03:36.361Z,50.00
2024-04-05T09:04:36.420Z,51.20
2024-04-05T09:05:36.440Z,53.55
2024-04-05T09:06:36.524Z,53.57
2024-04-05T09:07:36.599Z,50.71
2024-04-05T09:08:36.629Z,50.09
2024-04-05T09:09:45.524Z,56.99
2024-04-05T09:10:37.731Z,57.04
2024-04-05T09:11:36.707Z,46.52
2024-04-05T09:12:37.102Z,43.62
2024-04-05T09:13:36.689Z,46.80
2024-04-05T09:14:36.756Z,42.56
2024-04-05T09:15:36.684Z,50.36
2024-04-05T09:16:36.681Z,56.00
2024-04-05T09:17:37.076Z,50.42
2024-04-05T09:18:36.714Z,51.42
2024-04-05T09:19:36.750Z,48.63
2024-04-05T09:20:36.691Z,50.00
2024-04-05T09:21:36.710Z,51.02
2024-04-05T09:22:37.140Z,52.39
2024-04-05T09:23:36.791Z,50.00
2024-04-05T09:24:36.837Z,49.13
2024-04-05T09:25:36.848Z,50.29
2024-04-05T09:26:36.854Z,51.72
2024-04-05T09:27:37.072Z,50.00
2024-04-05T09:28:36.887Z,50.32
2024-04-05T09:29:36.873Z,50.07
2024-04-05T09:30:36.875Z,50.88
2024-04-05T09:31:36.933Z,51.52
2024-04-05T09:32:36.918Z,50.33
2024-04-05T09:33:37.001Z,51.23
2024-04-05T09:34:37.038Z,53.27
2024-04-05T09:35:37.119Z,51.16
2024-04-05T09:36:37.195Z,50.32
2024-04-05T09:37:37.580Z,50.10
2024-04-05T09:38:37.240Z,50.52
2024-04-05T09:39:37.315Z,50.00
2024-04-05T09:40:37.334Z,53.84
2024-04-05T09:41:37.364Z,50.73
2024-04-05T09:42:37.392Z,50.50
2024-04-05T09:43:52.514Z,53.73
2024-04-05T09:44:38.480Z,53.83
2024-04-05T09:45:37.456Z,53.21
2024-04-05T09:46:37.502Z,52.90
2024-04-05T09:47:37.761Z,47.06
2024-04-05T09:48:37.447Z,42.68
2024-04-05T09:49:37.471Z,52.20
2024-04-05T09:50:37.536Z,50.48
2024-04-05T09:51:37.477Z,51.01
2024-04-05T09:52:37.584Z,52.28
2024-04-05T09:53:37.453Z,50.09
2024-04-05T09:54:37.465Z,50.93
2024-04-05T09:55:37.488Z,57.55
2024-04-05T09:56:37.507Z,54.81
2024-04-05T09:57:37.548Z,52.70
2024-04-05T09:58:37.585Z,50.59
2024-04-05T09:59:38.072Z,53.37
2024-04-05T10:00:38.606Z,53.52
2024-04-05T10:01:37.644Z,49.12
2024-04-05T10:02:37.611Z,46.46
2024-04-05T10:03:37.681Z,44.86
2024-04-05T10:04:38.598Z,45.26
2024-04-05T10:05:37.786Z,50.40
2024-04-05T10:06:37.838Z,50.26
2024-04-05T10:07:37.958Z,52.27
2024-04-05T10:08:38.007Z,54.15
2024-04-05T10:09:38.061Z,59.25
2024-04-05T10:10:38.157Z,62.72
2024-04-05T10:11:38.207Z,58.96
2024-04-05T10:12:38.342Z,59.28
2024-04-05T10:13:38.354Z,61.26
2024-04-05T10:14:38.349Z,55.61
2024-04-05T10:15:38.385Z,50.00
2024-04-05T10:16:38.536Z,51.09
2024-04-05T10:17:38.655Z,50.00
2024-04-05T10:18:38.542Z,51.53
2024-04-05T10:19:38.589Z,44.04
2024-04-05T10:20:38.633Z,42.17
2024-04-05T10:21:38.699Z,49.72
2024-04-05T10:22:38.719Z,46.68
2024-04-05T10:23:38.780Z,50.86
2024-04-05T10:24:38.787Z,50.00
2024-04-05T10:25:38.830Z,50.00
2024-04-05T10:26:38.837Z,50.39
2024-04-05T10:27:39.117Z,44.26
2024-04-05T10:28:38.916Z,50.00
2024-04-05T10:29:41.385Z,50.87
2024-04-05T10:30:39.130Z,50.55
2024-04-05T10:31:39.188Z,49.42
2024-04-05T10:32:39.249Z,50.00
2024-04-05T10:33:39.285Z,52.21
2024-04-05T10:34:39.324Z,56.36
2024-04-05T10:35:39.338Z,52.79
2024-04-05T10:36:39.352Z,50.86
2024-04-05T10:37:39.627Z,51.10
2024-04-05T10:38:46.623Z,50.00
2024-04-05T10:39:40.481Z,50.39
2024-04-05T10:40:39.523Z,52.63
2024-04-05T10:41:39.491Z,54.65
2024-04-05T10:42:39.629Z,55.61
2024-04-05T10:43:39.487Z,64.63
2024-04-05T10:44:39.481Z,57.96
2024-04-05T10:45:39.477Z,50.08
2024-04-05T10:46:39.480Z,51.52
2024-04-05T10:47:39.594Z,54.79
2024-04-05T10:48:39.497Z,53.25
2024-04-05T10:49:39.611Z,50.68
2024-04-05T10:50:39.532Z,54.05
2024-04-05T10:51:39.579Z,54.57
2024-04-05T10:52:39.639Z,57.75
2024-04-05T10:53:39.643Z,64.71
2024-04-05T10:54:39.650Z,67.23
2024-04-05T10:55:39.664Z,70.84
2024-04-05T10:56:39.694Z,65.90
2024-04-05T10:57:40.102Z,60.81
2024-04-05T10:58:39.704Z,55.17
2024-04-05T10:59:39.757Z,54.44
2024-04-05T11:00:39.789Z,55.33
2024-04-05T11:01:39.822Z,59.34
2024-04-05T11:02:40.145Z,69.02
2024-04-05T11:03:39.821Z,66.83
2024-04-05T11:04:39.858Z,60.55
2024-04-05T11:05:39.866Z,54.19
2024-04-05T11:06:39.856Z,58.27
2024-04-05T11:07:39.875Z,57.91
2024-04-05T11:08:39.907Z,54.64
2024-04-05T11:09:39.928Z,51.40
2024-04-05T11:10:39.951Z,52.08
2024-04-05T11:11:40.025Z,57.53
2024-04-05T11:12:40.119Z,63.42
2024-04-05T11:13:40.213Z,53.82
2024-04-05T11:14:40.258Z,51.05
2024-04-05T11:15:40.292Z,56.31
2024-04-05T11:16:40.344Z,50.71
2024-04-05T11:17:40.420Z,49.96
2024-04-05T11:18:40.634Z,50.00
2024-04-05T11:19:40.528Z,51.39
2024-04-05T11:20:40.599Z,55.82
2024-04-05T11:21:40.662Z,63.55
2024-04-05T11:22:40.728Z,62.70
2024-04-05T11:23:40.774Z,61.23
2024-04-05T11:24:40.834Z,63.89
2024-04-05T11:25:40.892Z,63.62
2024-04-05T11:26:40.927Z,63.43
2024-04-05T11:27:40.919Z,64.76
2024-04-05T11:28:41.116Z,64.73
2024-04-05T11:29:41.050Z,61.43
2024-04-05T11:30:41.171Z,42.18
2024-04-05T11:31:41.093Z,42.73
2024-04-05T11:32:41.096Z,41.70
2024-04-05T11:33:41.127Z,54.35
2024-04-05T11:34:41.160Z,65.75
2024-04-05T11:35:41.258Z,72.65
2024-04-05T11:36:41.295Z,65.69
2024-04-05T11:37:41.306Z,62.27
2024-04-05T11:38:41.666Z,52.37
2024-04-05T11:39:41.367Z,50.00
2024-04-05T11:40:41.494Z,51.47
2024-04-05T11:41:41.413Z,54.21
2024-04-05T11:42:41.471Z,49.88
2024-04-05T11:43:41.526Z,53.76
2024-04-05T11:44:41.557Z,49.59
2024-04-05T11:45:41.645Z,53.72
2024-04-05T11:46:41.653Z,57.26
2024-04-05T11:47:41.652Z,55.71
2024-04-05T11:48:41.667Z,53.68
2024-04-05T11:49:41.786Z,50.54
2024-04-05T11:50:41.776Z,58.87
2024-04-05T11:51:41.758Z,61.76
2024-04-05T11:52:41.844Z,62.85
2024-04-05T11:53:41.850Z,54.89
2024-04-05T11:54:41.832Z,59.06
2024-04-05T11:55:41.827Z,50.03
2024-04-05T11:56:41.841Z,54.71
2024-04-05T11:57:41.879Z,62.38
2024-04-05T11:58:42.151Z,60.88
2024-04-05T11:59:41.963Z,61.57
2024-04-05T12:00:42.059Z,66.87
2024-04-05T12:01:42.106Z,77.58
2024-04-05T12:03:20.826Z,50.00
2024-04-05T12:04:20.703Z,50.00
2024-04-05T12:05:20.758Z,50.00
2024-04-05T12:06:20.710Z,50.00
2024-04-05T12:07:20.727Z,50.00
2024-04-05T12:08:20.772Z,52.56
2024-04-05T12:09:20.705Z,51.79
2024-04-05T12:10:20.723Z,57.92
2024-04-05T12:11:20.747Z,57.35
2024-04-05T12:12:20.733Z,56.06
2024-04-05T12:13:20.812Z,59.15
2024-04-05T12:14:20.721Z,50.78
2024-04-05T12:15:20.766Z,51.33
2024-04-05T12:16:20.742Z,50.11
2024-04-05T12:17:20.762Z,49.56
2024-04-05T12:18:20.756Z,50.00
2024-04-05T12:19:20.752Z,49.66
2024-04-05T12:20:20.736Z,51.28
2024-04-05T12:21:20.759Z,55.28
2024-04-05T12:22:20.756Z,47.61
2024-04-05T12:23:20.876Z,51.69
2024-04-05T12:24:20.741Z,54.77
2024-04-05T12:25:20.744Z,52.72
2024-04-05T12:26:25.252Z,50.96
2024-04-05T12:27:21.767Z,50.66
2024-04-05T12:28:21.334Z,47.87
2024-04-05T12:29:20.923Z,42.68
2024-04-05T12:30:20.759Z,30.57
2024-04-05T12:31:20.749Z,26.26
2024-04-05T12:32:20.777Z,45.41
2024-04-05T12:33:20.782Z,52.06
2024-04-05T12:34:20.754Z,58.56
2024-04-05T12:35:20.765Z,61.81
2024-04-05T12:36:20.776Z,58.90
2024-04-05T12:37:20.801Z,50.16
2024-04-05T12:38:34.838Z,50.37
2024-04-05T12:39:21.784Z,46.68
2024-04-05T12:40:20.794Z,37.68
2024-04-05T12:41:20.797Z,30.46
2024-04-05T12:42:20.800Z,26.71
2024-04-05T12:43:20.848Z,26.19
2024-04-05T12:44:21.052Z,45.73
2024-04-05T12:45:20.809Z,50.00
2024-04-05T12:46:20.775Z,54.21
2024-04-05T12:47:20.794Z,54.39
2024-04-05T12:48:20.913Z,51.57
2024-04-05T12:49:20.861Z,50.34
2024-04-05T12:50:21.192Z,54.04
2024-04-05T12:51:20.809Z,59.26
2024-04-05T12:52:20.789Z,56.93
2024-04-05T12:53:20.816Z,50.00
2024-04-05T12:54:20.798Z,53.87
2024-04-05T12:55:20.803Z,59.56
2024-04-05T12:56:20.823Z,57.11
2024-04-05T12:57:20.818Z,57.87
2024-04-05T12:58:20.834Z,57.60
2024-04-05T12:59:20.862Z,50.48
2024-04-05T13:00:20.864Z,55.54
2024-04-05T13:01:20.998Z,54.84
2024-04-05T13:02:21.241Z,62.82
2024-04-05T13:03:21.348Z,71.02
2024-04-05T13:04:20.984Z,72.84
2024-04-05T13:05:21.020Z,69.49
2024-04-05T13:06:21.020Z,76.32
2024-04-05T13:07:21.043Z,63.60
2024-04-05T13:08:21.226Z,59.18
2024-04-05T13:09:21.096Z,54.32
2024-04-05T13:10:21.104Z,51.91
2024-04-05T13:11:21.114Z,54.79
2024-04-05T13:12:21.144Z,51.03
2024-04-05T13:13:21.350Z,52.79
2024-04-05T13:14:21.233Z,52.38
2024-04-05T13:15:21.223Z,53.14
2024-04-05T13:16:21.215Z,53.70
2024-04-05T13:17:21.261Z,57.02
2024-04-05T13:18:21.449Z,55.16
2024-04-05T13:19:21.281Z,57.49
2024-04-05T13:20:21.315Z,66.16
2024-04-05T13:21:21.328Z,73.52
2024-04-05T13:22:21.370Z,78.62
2024-04-05T13:23:21.904Z,78.41
2024-04-05T13:24:21.415Z,70.24
2024-04-05T13:25:21.439Z,79.24
2024-04-05T13:26:21.821Z,76.54
2024-04-05T13:27:21.475Z,69.31
2024-04-05T13:28:21.511Z,72.66
2024-04-05T13:29:21.522Z,62.34
2024-04-05T13:30:21.530Z,55.47
2024-04-05T13:31:21.549Z,57.65
2024-04-05T13:32:21.578Z,55.40
2024-04-05T13:33:21.581Z,57.76
2024-04-05T13:34:21.589Z,53.59
2024-04-05T13:35:21.632Z,51.84
2024-04-05T13:36:21.642Z,55.68
2024-04-05T13:37:21.703Z,50.95
2024-04-05T13:38:21.691Z,52.74
2024-04-05T13:39:21.717Z,52.58
2024-04-05T13:40:21.756Z,55.51
2024-04-05T13:41:21.849Z,57.90
2024-04-05T13:42:21.809Z,54.19
2024-04-05T13:43:21.878Z,59.63
2024-04-05T13:44:21.815Z,50.68
2024-04-05T13:45:21.835Z,56.02
2024-04-05T13:46:21.877Z,52.36
2024-04-05T13:47:21.967Z,52.00
2024-04-05T13:48:21.966Z,51.62
2024-04-05T13:49:22.002Z,54.35
2024-04-05T13:50:21.964Z,53.99
2024-04-05T13:51:22.102Z,52.11
2024-04-05T13:52:22.041Z,50.00
2024-04-05T13:53:22.092Z,53.03
2024-04-05T13:54:22.162Z,52.66
2024-04-05T13:55:22.198Z,59.78
2024-04-05T13:56:22.228Z,60.15
2024-04-05T13:57:22.332Z,61.04
2024-04-05T13:58:22.268Z,56.30
2024-04-05T13:59:22.297Z,50.81
2024-04-05T14:00:22.352Z,50.89
2024-04-05T14:01:22.359Z,50.00
2024-04-05T14:02:22.389Z,54.98
2024-04-05T14:03:22.461Z,56.14
2024-04-05T14:04:22.495Z,55.46
2024-04-05T14:05:22.518Z,56.74
2024-04-05T14:06:22.595Z,52.58
2024-04-05T14:07:22.657Z,56.30
2024-04-05T14:08:22.700Z,54.43
2024-04-05T14:09:22.746Z,51.87
2024-04-05T14:10:22.746Z,50.49
2024-04-05T14:11:22.794Z,50.56
2024-04-05T14:12:22.804Z,54.00
2024-04-05T14:13:22.892Z,52.22
2024-04-05T14:14:22.901Z,52.98
2024-04-05T14:15:22.959Z,51.96
2024-04-05T14:16:22.935Z,54.84
2024-04-05T14:17:22.983Z,54.26
2024-04-05T14:18:23.031Z,51.32
2024-04-05T14:19:23.073Z,53.74
2024-04-05T14:20:23.118Z,57.53
2024-04-05T14:21:23.095Z,58.51
2024-04-05T14:22:23.134Z,57.80
2024-04-05T14:23:23.401Z,55.06
2024-04-05T14:24:23.185Z,51.77
2024-04-05T14:25:23.178Z,52.41
2024-04-05T14:26:23.192Z,50.29
2024-04-05T14:27:23.296Z,53.16
2024-04-05T14:28:23.347Z,50.81
2024-04-05T14:29:23.388Z,51.22
2024-04-05T14:30:23.382Z,54.79
2024-04-05T14:31:23.435Z,59.53
2024-04-05T14:32:23.484Z,53.99
2024-04-05T14:33:23.897Z,52.74
2024-04-05T14:34:23.608Z,56.59
2024-04-05T14:35:23.663Z,64.81
2024-04-05T14:36:23.717Z,59.94
2024-04-05T14:40:27.082Z,32.39
2024-04-05T14:40:52.064Z,55.42
2024-04-05T14:41:52.212Z,60.68
2024-04-05T14:43:20.933Z,67.51
2024-04-05T14:44:20.708Z,55.62
2024-04-05T14:44:52.075Z,55.76
2024-04-05T14:47:23.460Z,54.98
2024-04-05T14:47:56.407Z,55.94
2024-04-05T14:49:25.514Z,62.37
2024-04-05T14:49:56.408Z,55.89
2024-04-05T14:50:56.414Z,61.81
2024-04-05T14:51:56.450Z,70.86
2024-04-05T14:52:56.424Z,79.01
2024-04-05T14:53:57.006Z,87.10
2024-04-05T14:54:56.408Z,85.59
2024-04-05T14:55:56.415Z,84.76
2024-04-05T14:56:56.424Z,82.96
2024-04-05T14:57:56.483Z,82.29
2024-04-05T14:58:57.039Z,76.04
2024-04-05T14:59:56.550Z,74.70
2024-04-05T15:00:56.615Z,72.30
2024-04-05T15:01:56.610Z,70.51
2024-04-05T15:02:56.656Z,71.43
2024-04-05T15:03:56.766Z,71.69
2024-04-05T15:04:56.797Z,79.17
2024-04-05T15:05:56.998Z,77.77
2024-04-05T15:06:56.923Z,79.01
2024-04-05T15:07:57.027Z,78.06
2024-04-05T15:08:57.536Z,76.03
2024-04-05T15:09:57.099Z,76.78
2024-04-05T15:10:57.221Z,79.61
2024-04-05T15:11:58.115Z,83.52
2024-04-05T15:12:57.372Z,80.35
2024-04-05T15:13:57.581Z,82.94
2024-04-05T15:14:57.392Z,82.72
2024-04-05T15:15:57.546Z,81.39
2024-04-05T15:16:57.512Z,81.39
2024-04-05T15:17:57.590Z,80.89
2024-04-05T15:18:57.999Z,76.97
2024-04-05T15:19:57.595Z,79.33
2024-04-05T15:20:57.678Z,78.33
2024-04-05T15:21:57.731Z,78.88
2024-04-05T15:22:57.755Z,78.73
2024-04-05T15:23:57.824Z,77.47
2024-04-05T15:24:57.861Z,68.98
2024-04-05T15:25:57.890Z,66.82
2024-04-05T15:26:57.963Z,62.77
2024-04-05T15:27:58.000Z,63.48
2024-04-05T15:28:58.021Z,59.80
2024-04-05T15:29:58.068Z,65.03
2024-04-05T15:30:58.059Z,74.19
2024-04-05T15:31:58.130Z,81.37
2024-04-05T15:32:58.198Z,77.04
2024-04-05T15:33:58.546Z,80.00
2024-04-05T15:34:58.340Z,87.10
2024-04-05T15:35:58.375Z,95.73
2024-04-05T15:36:58.433Z,87.42
2024-04-05T15:37:58.432Z,87.16
2024-04-05T15:38:58.553Z,85.59
2024-04-05T15:39:58.523Z,82.37
2024-04-05T15:40:58.556Z,79.22
2024-04-05T15:41:58.558Z,81.73
2024-04-05T15:42:58.611Z,75.44
2024-04-05T15:43:58.653Z,70.20
2024-04-05T15:44:58.689Z,71.46
2024-04-05T15:45:58.693Z,72.37
2024-04-05T15:46:58.738Z,76.04
2024-04-05T15:47:58.813Z,83.29
2024-04-05T15:48:59.023Z,90.01
2024-04-05T15:49:58.900Z,95.16
2024-04-05T15:51:02.006Z,95.46
2024-04-05T15:51:58.960Z,95.52
2024-04-05T15:52:58.975Z,95.73
2024-04-05T15:53:58.947Z,95.86
2024-04-05T15:54:58.951Z,92.34
2024-04-05T15:55:58.980Z,95.74
2024-04-05T15:56:58.964Z,87.88
2024-04-05T15:57:58.948Z,88.42
2024-04-05T15:58:59.027Z,84.89
2024-04-05T15:59:58.993Z,87.12